Aeroporto :
LOGIN :

Iscrizione | Disclaimer

   EN    FR    IT 

 










Sommario :    VFR   VFR Marginale   IFR   IFR Intensivo   IFR Molto Intensivo
Visibilità : 
Base nubi : 
>= 8 km
>= 3000ft
5 / 8 km
1000 / 3000 ft
1500m / 5 km
500 / 1000 ft
800 / 1500m
200 / 500 ft
< 800m
< 200 ft
Simboli :   Temporali  Nebbia  Neve Forte  Precipitazioni Forti  Vento > 20 kt
SIGMETs :   Varie  Temporali  Ghiacco  Turbolenza  Onda orograficha  Ceneri Vulcaniche







- Altitudine del aeroporto : 0 ft


ENSL - Sleipner A Platform

ULTIMO METAR :
  • 210720Z 24006KT 150V270 9999 BKN030 08/07 Q1013 W04/S4

METARs OBSOLETI :
  • 210650Z 24006KT 9999 BKN030 08/07 Q1013 W04/S4
  • 210620Z 25006KT 9999 BKN030 08/07 Q1013 W05/S4
  • 210550Z 26006KT 9999 SCT015 BKN030 08/07 Q1013 W04/S4
  • 210520Z 29006KT 9999 SCT035 08/07 Q1012 W04/S4
  • 210450Z 32006KT 9999 BKN035 08/07 Q1012 W04/S4

TAF TAF ENSL
Valido dal 21 a 06 ore il 21 a 15 ore UTC


210500Z 2106/2115 29008KT 9999 FEW008 BKN020
BECMG 2109/2112 20012KT
Nessun NOTAM noto per questo aeroporto.



MetMap, La meteo Aeronautica in un colpo d'occhio ! - Copyright ORBIFLY Dicembre 2007 - Disclaimer

ORBIFLY MET'MAP TEAM :

Programmazione e sviluppo : Alexandra Zaïnal
Concezione e sviluppo : Baudouin d'Aumeries
Co-Programmazione e sviluppo : Marc-Olivier Méhu
Supporto tecnico e logistico : Manuel Goepfert
Aiuto per la traduzione : Arnaldo La Scala

Contatto : metmap@orbifly.com




FONTI E CREDITI :

   NOAA